sensor_id;sensor_type;location;lat;lon;timestamp;temperature;humidity
31799;DHT22;18374;51.136;3.502;2023-07-09T00:01:15;20.30;99.90
31799;DHT22;18374;51.136;3.502;2023-07-09T00:03:45;20.30;99.90
31799;DHT22;18374;51.136;3.502;2023-07-09T00:06:18;20.40;99.90
31799;DHT22;18374;51.136;3.502;2023-07-09T00:08:48;20.40;99.90
31799;DHT22;18374;51.136;3.502;2023-07-09T00:11:17;20.30;99.90
31799;DHT22;18374;51.136;3.502;2023-07-09T00:13:44;20.30;99.90
31799;DHT22;18374;51.136;3.502;2023-07-09T00:16:13;20.30;99.90
31799;DHT22;18374;51.136;3.502;2023-07-09T00:18:44;20.30;99.90
31799;DHT22;18374;51.136;3.502;2023-07-09T00:21:12;20.30;99.90
31799;DHT22;18374;51.136;3.502;2023-07-09T00:23:40;20.30;99.90
31799;DHT22;18374;51.136;3.502;2023-07-09T00:26:09;20.30;99.90
31799;DHT22;18374;51.136;3.502;2023-07-09T00:28:38;20.20;99.90
31799;DHT22;18374;51.136;3.502;2023-07-09T00:31:09;20.20;99.90
31799;DHT22;18374;51.136;3.502;2023-07-09T00:33:39;20.20;99.90
31799;DHT22;18374;51.136;3.502;2023-07-09T00:36:14;20.20;99.90
31799;DHT22;18374;51.136;3.502;2023-07-09T00:38:43;20.30;99.90
31799;DHT22;18374;51.136;3.502;2023-07-09T00:41:17;20.30;99.90
31799;DHT22;18374;51.136;3.502;2023-07-09T00:43:47;20.20;99.90
31799;DHT22;18374;51.136;3.502;2023-07-09T00:49:02;20.30;99.90
31799;DHT22;18374;51.136;3.502;2023-07-09T00:51:33;20.20;99.90
31799;DHT22;18374;51.136;3.502;2023-07-09T00:54:17;20.10;99.90
31799;DHT22;18374;51.136;3.502;2023-07-09T00:56:51;20.00;99.90
31799;DHT22;18374;51.136;3.502;2023-07-09T00:59:21;20.00;99.90
31799;DHT22;18374;51.136;3.502;2023-07-09T01:01:51;20.10;99.90
31799;DHT22;18374;51.136;3.502;2023-07-09T01:04:21;20.00;99.90
31799;DHT22;18374;51.136;3.502;2023-07-09T01:06:51;20.00;99.90
31799;DHT22;18374;51.136;3.502;2023-07-09T01:09:22;20.10;99.90
31799;DHT22;18374;51.136;3.502;2023-07-09T01:11:50;20.00;99.90
31799;DHT22;18374;51.136;3.502;2023-07-09T01:14:18;20.00;99.90
31799;DHT22;18374;51.136;3.502;2023-07-09T01:16:50;20.00;99.90
31799;DHT22;18374;51.136;3.502;2023-07-09T01:19:28;19.90;99.90
31799;DHT22;18374;51.136;3.502;2023-07-09T01:21:59;19.90;99.90
31799;DHT22;18374;51.136;3.502;2023-07-09T01:30:06;19.90;99.90
31799;DHT22;18374;51.136;3.502;2023-07-09T01:32:37;20.00;99.90
31799;DHT22;18374;51.136;3.502;2023-07-09T01:35:06;19.90;99.90
31799;DHT22;18374;51.136;3.502;2023-07-09T01:37:35;19.90;99.90
31799;DHT22;18374;51.136;3.502;2023-07-09T01:40:04;19.90;99.90
31799;DHT22;18374;51.136;3.502;2023-07-09T01:42:53;19.90;99.90
31799;DHT22;18374;51.136;3.502;2023-07-09T01:45:34;19.90;99.90
31799;DHT22;18374;51.136;3.502;2023-07-09T01:48:03;19.80;99.90
31799;DHT22;18374;51.136;3.502;2023-07-09T01:50:31;19.80;99.90
31799;DHT22;18374;51.136;3.502;2023-07-09T01:52:58;19.70;99.90
31799;DHT22;18374;51.136;3.502;2023-07-09T01:55:26;19.70;99.90
31799;DHT22;18374;51.136;3.502;2023-07-09T01:57:55;19.70;99.90
31799;DHT22;18374;51.136;3.502;2023-07-09T02:00:22;19.70;99.90
31799;DHT22;18374;51.136;3.502;2023-07-09T02:02:51;19.70;99.90
31799;DHT22;18374;51.136;3.502;2023-07-09T02:05:20;19.70;99.90
31799;DHT22;18374;51.136;3.502;2023-07-09T02:07:48;19.70;99.90
31799;DHT22;18374;51.136;3.502;2023-07-09T02:10:16;19.70;99.90
31799;DHT22;18374;51.136;3.502;2023-07-09T02:12:44;19.60;99.90
31799;DHT22;18374;51.136;3.502;2023-07-09T02:15:12;19.60;99.90
31799;DHT22;18374;51.136;3.502;2023-07-09T02:17:40;19.50;99.90
31799;DHT22;18374;51.136;3.502;2023-07-09T02:20:09;19.50;99.90
31799;DHT22;18374;51.136;3.502;2023-07-09T02:22:38;19.50;99.90
31799;DHT22;18374;51.136;3.502;2023-07-09T02:25:06;19.50;99.90
31799;DHT22;18374;51.136;3.502;2023-07-09T02:27:35;19.40;99.90
31799;DHT22;18374;51.136;3.502;2023-07-09T02:30:04;19.50;99.90
31799;DHT22;18374;51.136;3.502;2023-07-09T02:32:33;19.40;99.90
31799;DHT22;18374;51.136;3.502;2023-07-09T02:35:01;19.40;99.90
31799;DHT22;18374;51.136;3.502;2023-07-09T02:37:28;19.40;99.90
31799;DHT22;18374;51.136;3.502;2023-07-09T02:39:56;19.40;99.90
31799;DHT22;18374;51.136;3.502;2023-07-09T02:42:24;19.30;99.90
31799;DHT22;18374;51.136;3.502;2023-07-09T02:44:51;19.30;99.90
31799;DHT22;18374;51.136;3.502;2023-07-09T02:47:21;19.20;99.90
31799;DHT22;18374;51.136;3.502;2023-07-09T02:49:49;19.20;99.90
31799;DHT22;18374;51.136;3.502;2023-07-09T02:52:17;19.20;99.90
31799;DHT22;18374;51.136;3.502;2023-07-09T02:54:45;19.20;99.90
31799;DHT22;18374;51.136;3.502;2023-07-09T02:57:13;19.20;99.90
31799;DHT22;18374;51.136;3.502;2023-07-09T02:59:40;19.10;99.90
31799;DHT22;18374;51.136;3.502;2023-07-09T03:02:08;19.10;99.90
31799;DHT22;18374;51.136;3.502;2023-07-09T03:04:36;19.10;99.90
31799;DHT22;18374;51.136;3.502;2023-07-09T03:07:03;19.10;99.90
31799;DHT22;18374;51.136;3.502;2023-07-09T03:09:31;19.10;99.90
31799;DHT22;18374;51.136;3.502;2023-07-09T03:11:59;19.00;99.90
31799;DHT22;18374;51.136;3.502;2023-07-09T03:14:26;19.00;99.90
31799;DHT22;18374;51.136;3.502;2023-07-09T03:16:54;19.00;99.90
31799;DHT22;18374;51.136;3.502;2023-07-09T03:19:23;18.90;99.90
31799;DHT22;18374;51.136;3.502;2023-07-09T03:21:51;19.00;99.90
31799;DHT22;18374;51.136;3.502;2023-07-09T03:24:18;19.00;99.90
31799;DHT22;18374;51.136;3.502;2023-07-09T03:26:47;18.90;99.90
31799;DHT22;18374;51.136;3.502;2023-07-09T03:29:15;18.90;99.90
31799;DHT22;18374;51.136;3.502;2023-07-09T03:31:43;19.00;99.90
31799;DHT22;18374;51.136;3.502;2023-07-09T03:34:11;18.90;99.90
31799;DHT22;18374;51.136;3.502;2023-07-09T03:36:38;18.90;99.90
31799;DHT22;18374;51.136;3.502;2023-07-09T03:39:06;18.90;99.90
31799;DHT22;18374;51.136;3.502;2023-07-09T03:41:34;18.90;99.90
31799;DHT22;18374;51.136;3.502;2023-07-09T03:44:02;18.90;99.90
31799;DHT22;18374;51.136;3.502;2023-07-09T03:46:30;18.80;99.90
31799;DHT22;18374;51.136;3.502;2023-07-09T03:48:58;18.70;99.90
31799;DHT22;18374;51.136;3.502;2023-07-09T03:51:27;18.60;99.90
31799;DHT22;18374;51.136;3.502;2023-07-09T03:53:55;18.60;99.90
31799;DHT22;18374;51.136;3.502;2023-07-09T03:56:22;18.60;99.90
31799;DHT22;18374;51.136;3.502;2023-07-09T03:58:50;18.50;99.90
31799;DHT22;18374;51.136;3.502;2023-07-09T04:01:18;18.50;99.90
31799;DHT22;18374;51.136;3.502;2023-07-09T04:03:45;18.50;99.90
31799;DHT22;18374;51.136;3.502;2023-07-09T04:06:13;18.50;99.90
31799;DHT22;18374;51.136;3.502;2023-07-09T04:08:40;18.60;99.90
31799;DHT22;18374;51.136;3.502;2023-07-09T04:11:09;18.70;99.90
31799;DHT22;18374;51.136;3.502;2023-07-09T04:13:36;18.70;99.90
31799;DHT22;18374;51.136;3.502;2023-07-09T04:16:04;18.80;99.90
31799;DHT22;18374;51.136;3.502;2023-07-09T04:18:33;18.70;99.90
31799;DHT22;18374;51.136;3.502;2023-07-09T04:21:00;18.80;99.90
31799;DHT22;18374;51.136;3.502;2023-07-09T04:23:28;18.70;99.90
31799;DHT22;18374;51.136;3.502;2023-07-09T04:25:55;18.60;99.90
31799;DHT22;18374;51.136;3.502;2023-07-09T04:28:23;18.60;99.90
31799;DHT22;18374;51.136;3.502;2023-07-09T04:30:51;18.70;99.90
31799;DHT22;18374;51.136;3.502;2023-07-09T04:33:19;18.70;99.90
31799;DHT22;18374;51.136;3.502;2023-07-09T04:35:48;18.70;99.90
31799;DHT22;18374;51.136;3.502;2023-07-09T04:38:16;18.60;99.90
31799;DHT22;18374;51.136;3.502;2023-07-09T04:40:44;18.50;99.90
31799;DHT22;18374;51.136;3.502;2023-07-09T04:43:11;18.40;99.90
31799;DHT22;18374;51.136;3.502;2023-07-09T04:45:39;18.40;99.90
31799;DHT22;18374;51.136;3.502;2023-07-09T04:48:07;18.40;99.90
31799;DHT22;18374;51.136;3.502;2023-07-09T04:50:34;18.40;99.90
31799;DHT22;18374;51.136;3.502;2023-07-09T04:53:02;18.50;99.90
31799;DHT22;18374;51.136;3.502;2023-07-09T04:55:30;18.50;99.90
31799;DHT22;18374;51.136;3.502;2023-07-09T04:57:59;18.50;99.90
31799;DHT22;18374;51.136;3.502;2023-07-09T05:00:26;18.50;99.90
31799;DHT22;18374;51.136;3.502;2023-07-09T05:02:54;18.60;99.90
31799;DHT22;18374;51.136;3.502;2023-07-09T05:05:21;18.60;99.90
31799;DHT22;18374;51.136;3.502;2023-07-09T05:07:50;18.70;99.90
31799;DHT22;18374;51.136;3.502;2023-07-09T05:10:18;18.80;99.90
31799;DHT22;18374;51.136;3.502;2023-07-09T05:12:53;18.90;99.90
31799;DHT22;18374;51.136;3.502;2023-07-09T05:15:22;18.90;99.90
31799;DHT22;18374;51.136;3.502;2023-07-09T05:17:50;18.90;99.90
31799;DHT22;18374;51.136;3.502;2023-07-09T05:20:17;19.00;99.90
31799;DHT22;18374;51.136;3.502;2023-07-09T05:22:45;19.00;99.90
31799;DHT22;18374;51.136;3.502;2023-07-09T05:25:12;19.00;99.90
31799;DHT22;18374;51.136;3.502;2023-07-09T05:27:40;19.00;99.90
31799;DHT22;18374;51.136;3.502;2023-07-09T05:30:07;19.10;99.90
31799;DHT22;18374;51.136;3.502;2023-07-09T05:32:36;19.30;99.90
31799;DHT22;18374;51.136;3.502;2023-07-09T05:35:04;19.40;99.90
31799;DHT22;18374;51.136;3.502;2023-07-09T05:37:32;19.50;99.90
31799;DHT22;18374;51.136;3.502;2023-07-09T05:40:00;19.60;99.90
31799;DHT22;18374;51.136;3.502;2023-07-09T05:42:27;19.70;99.90
31799;DHT22;18374;51.136;3.502;2023-07-09T05:44:55;19.80;99.90
31799;DHT22;18374;51.136;3.502;2023-07-09T05:47:23;19.90;99.90
31799;DHT22;18374;51.136;3.502;2023-07-09T05:49:51;20.00;99.90
31799;DHT22;18374;51.136;3.502;2023-07-09T05:52:19;20.10;99.90
31799;DHT22;18374;51.136;3.502;2023-07-09T05:54:48;20.20;99.90
31799;DHT22;18374;51.136;3.502;2023-07-09T05:57:17;20.30;99.90
31799;DHT22;18374;51.136;3.502;2023-07-09T05:59:44;20.30;99.90
31799;DHT22;18374;51.136;3.502;2023-07-09T06:02:16;20.50;99.90
31799;DHT22;18374;51.136;3.502;2023-07-09T06:04:45;20.50;99.90
31799;DHT22;18374;51.136;3.502;2023-07-09T06:07:13;20.60;99.90
31799;DHT22;18374;51.136;3.502;2023-07-09T06:09:41;20.60;99.90
31799;DHT22;18374;51.136;3.502;2023-07-09T06:12:09;20.70;99.90
31799;DHT22;18374;51.136;3.502;2023-07-09T06:14:36;20.80;99.90
31799;DHT22;18374;51.136;3.502;2023-07-09T06:17:04;20.90;99.90
31799;DHT22;18374;51.136;3.502;2023-07-09T06:19:32;21.00;99.90
31799;DHT22;18374;51.136;3.502;2023-07-09T06:21:59;21.10;99.90
31799;DHT22;18374;51.136;3.502;2023-07-09T06:24:27;21.20;99.90
31799;DHT22;18374;51.136;3.502;2023-07-09T06:26:55;21.40;99.90
31799;DHT22;18374;51.136;3.502;2023-07-09T06:29:22;21.50;99.90
31799;DHT22;18374;51.136;3.502;2023-07-09T06:31:50;21.60;99.90
31799;DHT22;18374;51.136;3.502;2023-07-09T06:34:18;21.60;99.90
31799;DHT22;18374;51.136;3.502;2023-07-09T06:36:45;21.70;99.90
31799;DHT22;18374;51.136;3.502;2023-07-09T06:39:13;21.70;99.90
31799;DHT22;18374;51.136;3.502;2023-07-09T06:41:40;21.70;99.90
31799;DHT22;18374;51.136;3.502;2023-07-09T06:44:26;21.80;99.90
31799;DHT22;18374;51.136;3.502;2023-07-09T06:46:54;22.00;99.90
31799;DHT22;18374;51.136;3.502;2023-07-09T06:49:21;22.10;99.90
31799;DHT22;18374;51.136;3.502;2023-07-09T06:51:49;22.20;99.90
31799;DHT22;18374;51.136;3.502;2023-07-09T06:54:17;22.30;99.90
31799;DHT22;18374;51.136;3.502;2023-07-09T06:56:44;22.40;99.90
31799;DHT22;18374;51.136;3.502;2023-07-09T06:59:12;22.40;99.90
31799;DHT22;18374;51.136;3.502;2023-07-09T07:01:39;22.30;99.90
31799;DHT22;18374;51.136;3.502;2023-07-09T07:04:07;22.30;99.90
31799;DHT22;18374;51.136;3.502;2023-07-09T07:06:35;22.40;99.90
31799;DHT22;18374;51.136;3.502;2023-07-09T07:09:02;22.50;99.90
31799;DHT22;18374;51.136;3.502;2023-07-09T07:11:30;22.60;99.90
31799;DHT22;18374;51.136;3.502;2023-07-09T07:13:58;22.60;99.90
31799;DHT22;18374;51.136;3.502;2023-07-09T07:16:26;22.70;99.90
31799;DHT22;18374;51.136;3.502;2023-07-09T07:18:53;22.50;99.90
31799;DHT22;18374;51.136;3.502;2023-07-09T07:21:21;22.60;99.90
31799;DHT22;18374;51.136;3.502;2023-07-09T07:23:48;22.70;99.90
31799;DHT22;18374;51.136;3.502;2023-07-09T07:26:19;22.90;99.90
31799;DHT22;18374;51.136;3.502;2023-07-09T07:28:47;23.20;99.90
31799;DHT22;18374;51.136;3.502;2023-07-09T07:31:15;23.20;99.90
31799;DHT22;18374;51.136;3.502;2023-07-09T07:33:43;23.30;99.90
31799;DHT22;18374;51.136;3.502;2023-07-09T07:36:10;23.40;99.90
31799;DHT22;18374;51.136;3.502;2023-07-09T07:38:56;23.50;99.90
31799;DHT22;18374;51.136;3.502;2023-07-09T07:41:24;23.70;99.90
31799;DHT22;18374;51.136;3.502;2023-07-09T07:43:52;23.80;99.90
31799;DHT22;18374;51.136;3.502;2023-07-09T07:46:20;24.00;99.90
31799;DHT22;18374;51.136;3.502;2023-07-09T07:48:47;24.20;99.90
31799;DHT22;18374;51.136;3.502;2023-07-09T07:51:15;24.30;99.90
31799;DHT22;18374;51.136;3.502;2023-07-09T07:53:42;24.50;99.90
31799;DHT22;18374;51.136;3.502;2023-07-09T07:56:10;24.50;99.90
31799;DHT22;18374;51.136;3.502;2023-07-09T07:58:37;24.60;99.90
31799;DHT22;18374;51.136;3.502;2023-07-09T08:01:05;24.60;99.90
31799;DHT22;18374;51.136;3.502;2023-07-09T08:03:33;24.40;99.90
31799;DHT22;18374;51.136;3.502;2023-07-09T08:06:00;24.30;99.90
31799;DHT22;18374;51.136;3.502;2023-07-09T08:08:29;24.50;99.90
31799;DHT22;18374;51.136;3.502;2023-07-09T08:11:01;24.80;99.90
31799;DHT22;18374;51.136;3.502;2023-07-09T08:13:35;24.70;99.90
31799;DHT22;18374;51.136;3.502;2023-07-09T08:16:04;24.60;99.90
31799;DHT22;18374;51.136;3.502;2023-07-09T08:18:33;24.60;99.90
31799;DHT22;18374;51.136;3.502;2023-07-09T08:21:01;24.90;99.90
31799;DHT22;18374;51.136;3.502;2023-07-09T08:23:28;25.00;99.90
31799;DHT22;18374;51.136;3.502;2023-07-09T08:25:57;25.20;99.90
31799;DHT22;18374;51.136;3.502;2023-07-09T08:28:26;25.50;99.90
31799;DHT22;18374;51.136;3.502;2023-07-09T08:30:54;25.60;99.90
31799;DHT22;18374;51.136;3.502;2023-07-09T08:33:22;25.80;99.90
31799;DHT22;18374;51.136;3.502;2023-07-09T08:35:51;25.60;99.90
31799;DHT22;18374;51.136;3.502;2023-07-09T08:38:20;25.60;99.90
31799;DHT22;18374;51.136;3.502;2023-07-09T08:40:59;25.70;99.90
31799;DHT22;18374;51.136;3.502;2023-07-09T08:49:01;25.20;99.90
31799;DHT22;18374;51.136;3.502;2023-07-09T08:51:33;25.30;99.90
31799;DHT22;18374;51.136;3.502;2023-07-09T08:54:03;25.50;99.90
31799;DHT22;18374;51.136;3.502;2023-07-09T08:56:31;25.90;99.90
31799;DHT22;18374;51.136;3.502;2023-07-09T08:59:00;26.20;99.90
31799;DHT22;18374;51.136;3.502;2023-07-09T09:01:31;26.50;99.90
31799;DHT22;18374;51.136;3.502;2023-07-09T09:04:24;26.60;99.90
31799;DHT22;18374;51.136;3.502;2023-07-09T09:09:55;26.10;99.90
31799;DHT22;18374;51.136;3.502;2023-07-09T09:12:26;25.70;99.90
31799;DHT22;18374;51.136;3.502;2023-07-09T09:15:00;25.80;99.90
31799;DHT22;18374;51.136;3.502;2023-07-09T09:17:32;25.80;99.90
31799;DHT22;18374;51.136;3.502;2023-07-09T09:20:03;25.90;99.90
31799;DHT22;18374;51.136;3.502;2023-07-09T09:22:33;26.00;99.90
31799;DHT22;18374;51.136;3.502;2023-07-09T09:25:16;25.80;99.90
31799;DHT22;18374;51.136;3.502;2023-07-09T09:27:51;25.80;99.90
31799;DHT22;18374;51.136;3.502;2023-07-09T09:30:20;25.90;99.90
31799;DHT22;18374;51.136;3.502;2023-07-09T09:35:30;26.00;99.90
31799;DHT22;18374;51.136;3.502;2023-07-09T09:38:01;26.10;99.90
31799;DHT22;18374;51.136;3.502;2023-07-09T09:40:33;26.10;99.90
31799;DHT22;18374;51.136;3.502;2023-07-09T09:43:02;26.10;99.90
31799;DHT22;18374;51.136;3.502;2023-07-09T09:45:34;26.00;99.90
31799;DHT22;18374;51.136;3.502;2023-07-09T09:48:10;25.80;99.90
31799;DHT22;18374;51.136;3.502;2023-07-09T09:50:41;25.60;99.90
31799;DHT22;18374;51.136;3.502;2023-07-09T09:53:09;25.50;99.90
31799;DHT22;18374;51.136;3.502;2023-07-09T09:55:45;25.30;99.90
31799;DHT22;18374;51.136;3.502;2023-07-09T09:58:14;25.00;99.90
31799;DHT22;18374;51.136;3.502;2023-07-09T10:00:47;24.80;99.90
31799;DHT22;18374;51.136;3.502;2023-07-09T10:03:19;24.60;99.90
31799;DHT22;18374;51.136;3.502;2023-07-09T10:05:51;24.50;99.90
31799;DHT22;18374;51.136;3.502;2023-07-09T10:08:41;24.40;99.90
31799;DHT22;18374;51.136;3.502;2023-07-09T10:17:15;24.10;99.90
31799;DHT22;18374;51.136;3.502;2023-07-09T10:19:48;24.20;99.90
31799;DHT22;18374;51.136;3.502;2023-07-09T10:25:23;24.10;99.90
31799;DHT22;18374;51.136;3.502;2023-07-09T10:30:50;24.10;99.90
31799;DHT22;18374;51.136;3.502;2023-07-09T10:33:30;24.10;99.90
31799;DHT22;18374;51.136;3.502;2023-07-09T10:39:02;24.10;99.90
31799;DHT22;18374;51.136;3.502;2023-07-09T10:41:34;24.10;99.90
31799;DHT22;18374;51.136;3.502;2023-07-09T10:44:10;24.10;99.90
31799;DHT22;18374;51.136;3.502;2023-07-09T10:46:43;24.00;99.90
31799;DHT22;18374;51.136;3.502;2023-07-09T10:49:15;23.80;99.90
31799;DHT22;18374;51.136;3.502;2023-07-09T10:54:37;23.30;99.90
31799;DHT22;18374;51.136;3.502;2023-07-09T10:57:14;23.30;99.90
31799;DHT22;18374;51.136;3.502;2023-07-09T10:59:48;23.20;99.90
31799;DHT22;18374;51.136;3.502;2023-07-09T11:02:18;23.10;99.90
31799;DHT22;18374;51.136;3.502;2023-07-09T11:04:49;23.20;99.90
31799;DHT22;18374;51.136;3.502;2023-07-09T11:07:32;23.30;99.90
31799;DHT22;18374;51.136;3.502;2023-07-09T11:10:04;23.40;99.90
31799;DHT22;18374;51.136;3.502;2023-07-09T11:12:39;23.40;99.90
31799;DHT22;18374;51.136;3.502;2023-07-09T11:15:11;23.30;99.90
31799;DHT22;18374;51.136;3.502;2023-07-09T11:17:44;23.30;99.90
31799;DHT22;18374;51.136;3.502;2023-07-09T11:22:52;23.50;99.90
31799;DHT22;18374;51.136;3.502;2023-07-09T11:25:46;23.70;99.90
31799;DHT22;18374;51.136;3.502;2023-07-09T11:28:38;23.70;99.90
31799;DHT22;18374;51.136;3.502;2023-07-09T11:31:07;23.60;99.90
31799;DHT22;18374;51.136;3.502;2023-07-09T11:33:48;23.60;99.90
31799;DHT22;18374;51.136;3.502;2023-07-09T11:36:25;23.30;99.90
31799;DHT22;18374;51.136;3.502;2023-07-09T11:38:54;23.10;99.90
31799;DHT22;18374;51.136;3.502;2023-07-09T11:46:37;22.70;99.90
31799;DHT22;18374;51.136;3.502;2023-07-09T11:49:11;22.60;99.90
31799;DHT22;18374;51.136;3.502;2023-07-09T11:54:12;22.20;99.90
31799;DHT22;18374;51.136;3.502;2023-07-09T11:56:52;22.20;99.90
31799;DHT22;18374;51.136;3.502;2023-07-09T11:59:23;22.20;99.90
31799;DHT22;18374;51.136;3.502;2023-07-09T12:01:52;22.30;99.90
31799;DHT22;18374;51.136;3.502;2023-07-09T12:04:22;22.30;99.90
31799;DHT22;18374;51.136;3.502;2023-07-09T12:06:57;22.40;99.90
31799;DHT22;18374;51.136;3.502;2023-07-09T12:09:30;22.40;99.90
31799;DHT22;18374;51.136;3.502;2023-07-09T12:12:00;22.40;99.90
31799;DHT22;18374;51.136;3.502;2023-07-09T12:14:28;22.40;99.90
31799;DHT22;18374;51.136;3.502;2023-07-09T12:16:55;22.30;99.90
31799;DHT22;18374;51.136;3.502;2023-07-09T12:19:24;22.20;99.90
31799;DHT22;18374;51.136;3.502;2023-07-09T12:21:52;22.10;99.90
31799;DHT22;18374;51.136;3.502;2023-07-09T12:24:24;22.10;99.90
31799;DHT22;18374;51.136;3.502;2023-07-09T12:26:57;22.10;99.90
31799;DHT22;18374;51.136;3.502;2023-07-09T12:29:30;21.90;99.90
31799;DHT22;18374;51.136;3.502;2023-07-09T12:32:12;21.80;99.90
31799;DHT22;18374;51.136;3.502;2023-07-09T12:34:41;21.80;99.90
31799;DHT22;18374;51.136;3.502;2023-07-09T12:37:11;21.70;99.90
31799;DHT22;18374;51.136;3.502;2023-07-09T12:39:41;21.80;99.90
31799;DHT22;18374;51.136;3.502;2023-07-09T12:42:14;21.90;99.90
31799;DHT22;18374;51.136;3.502;2023-07-09T12:44:43;21.90;99.90
31799;DHT22;18374;51.136;3.502;2023-07-09T12:47:13;22.00;99.90
31799;DHT22;18374;51.136;3.502;2023-07-09T12:49:42;22.10;99.90
31799;DHT22;18374;51.136;3.502;2023-07-09T12:52:19;22.10;99.90
31799;DHT22;18374;51.136;3.502;2023-07-09T12:54:51;22.10;99.90
31799;DHT22;18374;51.136;3.502;2023-07-09T12:57:23;22.10;99.90
31799;DHT22;18374;51.136;3.502;2023-07-09T12:59:51;22.30;99.90
31799;DHT22;18374;51.136;3.502;2023-07-09T13:02:23;22.40;99.90
31799;DHT22;18374;51.136;3.502;2023-07-09T13:05:02;22.70;99.90
31799;DHT22;18374;51.136;3.502;2023-07-09T13:10:07;23.20;99.90
31799;DHT22;18374;51.136;3.502;2023-07-09T13:12:44;23.30;99.90
31799;DHT22;18374;51.136;3.502;2023-07-09T13:18:13;23.40;99.90
31799;DHT22;18374;51.136;3.502;2023-07-09T13:20:43;23.30;99.90
31799;DHT22;18374;51.136;3.502;2023-07-09T13:23:16;23.30;99.90
31799;DHT22;18374;51.136;3.502;2023-07-09T13:25:45;23.30;99.90
31799;DHT22;18374;51.136;3.502;2023-07-09T13:28:16;23.30;99.90
31799;DHT22;18374;51.136;3.502;2023-07-09T13:30:50;23.10;99.90
31799;DHT22;18374;51.136;3.502;2023-07-09T13:33:18;22.80;99.90
31799;DHT22;18374;51.136;3.502;2023-07-09T13:35:47;22.60;99.90
31799;DHT22;18374;51.136;3.502;2023-07-09T13:38:16;22.60;99.90
31799;DHT22;18374;51.136;3.502;2023-07-09T13:40:46;22.70;99.90
31799;DHT22;18374;51.136;3.502;2023-07-09T13:43:26;22.70;99.90
31799;DHT22;18374;51.136;3.502;2023-07-09T13:45:56;22.80;99.90
31799;DHT22;18374;51.136;3.502;2023-07-09T13:48:24;22.70;99.90
31799;DHT22;18374;51.136;3.502;2023-07-09T13:50:53;22.60;99.90
31799;DHT22;18374;51.136;3.502;2023-07-09T13:53:23;22.40;99.90
31799;DHT22;18374;51.136;3.502;2023-07-09T13:55:53;22.30;99.90
31799;DHT22;18374;51.136;3.502;2023-07-09T13:58:21;22.20;99.90
31799;DHT22;18374;51.136;3.502;2023-07-09T14:00:54;22.10;99.90
31799;DHT22;18374;51.136;3.502;2023-07-09T14:03:26;22.20;99.90
31799;DHT22;18374;51.136;3.502;2023-07-09T14:05:56;22.30;99.90
31799;DHT22;18374;51.136;3.502;2023-07-09T14:08:23;22.50;99.90
31799;DHT22;18374;51.136;3.502;2023-07-09T14:10:51;22.80;99.90
31799;DHT22;18374;51.136;3.502;2023-07-09T14:13:20;23.00;99.90
31799;DHT22;18374;51.136;3.502;2023-07-09T14:15:48;23.30;99.90
31799;DHT22;18374;51.136;3.502;2023-07-09T14:18:18;23.60;99.90
31799;DHT22;18374;51.136;3.502;2023-07-09T14:20:50;23.40;99.90
31799;DHT22;18374;51.136;3.502;2023-07-09T14:23:18;23.20;99.90
31799;DHT22;18374;51.136;3.502;2023-07-09T14:25:46;23.20;99.90
31799;DHT22;18374;51.136;3.502;2023-07-09T14:28:15;23.10;99.90
31799;DHT22;18374;51.136;3.502;2023-07-09T14:30:44;23.10;99.90
31799;DHT22;18374;51.136;3.502;2023-07-09T14:35:43;23.00;99.90
31799;DHT22;18374;51.136;3.502;2023-07-09T14:38:16;22.90;99.90
31799;DHT22;18374;51.136;3.502;2023-07-09T14:40:49;22.90;99.90
31799;DHT22;18374;51.136;3.502;2023-07-09T14:43:21;23.10;99.90
31799;DHT22;18374;51.136;3.502;2023-07-09T14:45:49;23.30;99.90
31799;DHT22;18374;51.136;3.502;2023-07-09T14:48:20;23.20;99.90
31799;DHT22;18374;51.136;3.502;2023-07-09T14:50:48;23.40;99.90
31799;DHT22;18374;51.136;3.502;2023-07-09T14:53:26;23.40;99.90
31799;DHT22;18374;51.136;3.502;2023-07-09T14:55:54;23.40;99.90
31799;DHT22;18374;51.136;3.502;2023-07-09T14:58:22;23.50;99.90
31799;DHT22;18374;51.136;3.502;2023-07-09T15:00:50;23.60;99.90
31799;DHT22;18374;51.136;3.502;2023-07-09T15:03:19;23.50;99.90
31799;DHT22;18374;51.136;3.502;2023-07-09T15:05:48;23.60;99.90
31799;DHT22;18374;51.136;3.502;2023-07-09T15:08:18;23.70;99.90
31799;DHT22;18374;51.136;3.502;2023-07-09T15:10:47;23.80;99.90
31799;DHT22;18374;51.136;3.502;2023-07-09T15:13:16;24.20;99.90
31799;DHT22;18374;51.136;3.502;2023-07-09T15:15:49;24.10;99.90
31799;DHT22;18374;51.136;3.502;2023-07-09T15:18:17;24.00;99.90
31799;DHT22;18374;51.136;3.502;2023-07-09T15:20:47;24.30;99.90
31799;DHT22;18374;51.136;3.502;2023-07-09T15:23:25;24.40;99.90
31799;DHT22;18374;51.136;3.502;2023-07-09T15:25:52;24.30;99.90
31799;DHT22;18374;51.136;3.502;2023-07-09T15:28:20;24.40;99.90
31799;DHT22;18374;51.136;3.502;2023-07-09T15:30:48;24.30;99.90
31799;DHT22;18374;51.136;3.502;2023-07-09T15:33:17;24.30;99.90
31799;DHT22;18374;51.136;3.502;2023-07-09T15:35:46;24.10;99.90
31799;DHT22;18374;51.136;3.502;2023-07-09T15:40:46;23.70;99.90
31799;DHT22;18374;51.136;3.502;2023-07-09T15:43:15;23.70;99.90
31799;DHT22;18374;51.136;3.502;2023-07-09T15:45:44;23.90;99.90
31799;DHT22;18374;51.136;3.502;2023-07-09T15:48:26;24.00;99.90
31799;DHT22;18374;51.136;3.502;2023-07-09T15:50:55;24.10;99.90
31799;DHT22;18374;51.136;3.502;2023-07-09T15:53:23;23.90;99.90
31799;DHT22;18374;51.136;3.502;2023-07-09T15:55:50;23.70;99.90
31799;DHT22;18374;51.136;3.502;2023-07-09T15:58:24;23.50;99.90
31799;DHT22;18374;51.136;3.502;2023-07-09T16:00:52;23.60;99.90
31799;DHT22;18374;51.136;3.502;2023-07-09T16:03:20;23.60;99.90
31799;DHT22;18374;51.136;3.502;2023-07-09T16:05:49;23.40;99.90
31799;DHT22;18374;51.136;3.502;2023-07-09T16:08:17;23.30;99.90
31799;DHT22;18374;51.136;3.502;2023-07-09T16:10:45;23.30;99.90
31799;DHT22;18374;51.136;3.502;2023-07-09T16:13:17;23.50;99.90
31799;DHT22;18374;51.136;3.502;2023-07-09T16:15:50;23.50;99.90
31799;DHT22;18374;51.136;3.502;2023-07-09T16:18:18;23.50;99.90
31799;DHT22;18374;51.136;3.502;2023-07-09T16:20:46;23.50;99.90
31799;DHT22;18374;51.136;3.502;2023-07-09T16:23:18;23.40;99.90
31799;DHT22;18374;51.136;3.502;2023-07-09T16:25:47;23.50;99.90
31799;DHT22;18374;51.136;3.502;2023-07-09T16:28:16;23.50;99.90
31799;DHT22;18374;51.136;3.502;2023-07-09T16:30:47;23.30;99.90
31799;DHT22;18374;51.136;3.502;2023-07-09T16:33:18;23.40;99.90
31799;DHT22;18374;51.136;3.502;2023-07-09T16:35:45;23.40;99.90
31799;DHT22;18374;51.136;3.502;2023-07-09T16:38:14;23.40;99.90
31799;DHT22;18374;51.136;3.502;2023-07-09T16:40:41;23.40;99.90
31799;DHT22;18374;51.136;3.502;2023-07-09T16:43:16;23.10;99.90
31799;DHT22;18374;51.136;3.502;2023-07-09T16:45:45;22.90;99.90